Time;durP1;ratioP1;P1;durP2;ratioP2;P2;SDS_P1;SDS_P2;PMS_P1;PMS_P2;Temp;Humidity;BMP_temperature;BMP_pressure;BME280_temperature;BME280_humidity;BME280_pressure;Samples;Min_cycle;Max_cycle;Signal;HPM_P1;HPM_P2
2023/08/02 00:03:41;;;;;;;4.1;1.8;;;;;;;16.2;88.51;;;;;
2023/08/02 00:13:41;;;;;;;4.1;1.9;;;;;;;16.33;87.8;;;;;
2023/08/02 00:23:41;;;;;;;4.1;1.9;;;;;;;16.42;87.71;;;;;
2023/08/02 00:34:41;;;;;;;4.1;1.9;;;;;;;16.48;87.7;;;;;
2023/08/02 00:45:41;;;;;;;3.8;1.9;;;;;;;16.75;87.17;;;;;
2023/08/02 00:56:41;;;;;;;3.8;1.9;;;;;;;16.77;86.52;;;;;
2023/08/02 01:07:41;;;;;;;4;1.7;;;;;;;16.63;87.11;;;;;
2023/08/02 01:18:41;;;;;;;4;1.7;;;;;;;16.68;87.64;;;;;
2023/08/02 01:28:41;;;;;;;4;1.7;;;;;;;16.71;87.2;;;;;
2023/08/02 01:39:41;;;;;;;4;1.7;;;;;;;16.67;87.32;;;;;
2023/08/02 01:49:41;;;;;;;4;1.7;;;;;;;16.48;87.71;;;;;
2023/08/02 01:59:41;;;;;;;4;1.7;;;;;;;16.35;88.11;;;;;
2023/08/02 02:09:41;;;;;;;5.7;2.2;;;;;;;16.17;88.61;;;;;
2023/08/02 02:19:41;;;;;;;5.7;2.2;;;;;;;15.98;88.64;;;;;
2023/08/02 02:30:41;;;;;;;5.7;2.2;;;;;;;15.92;89.35;;;;;
2023/08/02 02:40:41;;;;;;;4.7;2;;;;;;;16.09;89.03;;;;;
2023/08/02 02:50:41;;;;;;;4.7;2;;;;;;;16.19;88.79;;;;;
2023/08/02 03:00:41;;;;;;;4.7;2;;;;;;;16.27;88.79;;;;;
2023/08/02 03:11:41;;;;;;;5.4;2;;;;;;;16.42;88.55;;;;;
2023/08/02 03:21:41;;;;;;;5.4;2;;;;;;;16.52;88.32;;;;;
2023/08/02 03:31:44;;;;;;;5.4;2;;;;;;;16.63;87.77;;;;;
2023/08/02 03:42:42;;;;;;;4.3;2.2;;;;;;;16.76;87.24;;;;;
2023/08/02 03:53:42;;;;;;;4.3;2.2;;;;;;;16.97;86.86;;;;;
2023/08/02 04:04:42;;;;;;;4.3;2.2;;;;;;;17.13;86.23;;;;;
2023/08/02 04:14:42;;;;;;;4.7;2.3;;;;;;;17.08;86.06;;;;;
2023/08/02 04:25:42;;;;;;;4.7;2.3;;;;;;;17.12;85.71;;;;;
2023/08/02 04:35:42;;;;;;;4.7;2.3;;;;;;;17.43;85.7;;;;;
2023/08/02 04:46:42;;;;;;;4.3;2.1;;;;;;;17.68;83.87;;;;;
2023/08/02 04:57:42;;;;;;;4.3;2.1;;;;;;;18;83.23;;;;;
2023/08/02 05:07:42;;;;;;;5.3;2.2;;;;;;;18.13;84.12;;;;;
2023/08/02 05:17:42;;;;;;;5.3;2.2;;;;;;;18.13;81.55;;;;;
2023/08/02 05:27:42;;;;;;;5.3;2.2;;;;;;;18.46;80.16;;;;;
2023/08/02 05:38:42;;;;;;;4.9;2.5;;;;;;;18.25;80.68;;;;;
2023/08/02 05:48:42;;;;;;;4.9;2.5;;;;;;;18.48;80.92;;;;;
2023/08/02 05:58:42;;;;;;;4.9;2.5;;;;;;;18.74;79.75;;;;;
2023/08/02 06:09:42;;;;;;;5.9;2.8;;;;;;;18.68;79.64;;;;;
2023/08/02 06:19:42;;;;;;;5.9;2.8;;;;;;;18.95;80.03;;;;;
2023/08/02 06:30:42;;;;;;;5.9;2.8;;;;;;;19.25;78.16;;;;;
2023/08/02 06:40:42;;;;;;;6.2;3.4;;;;;;;19.53;75.36;;;;;
2023/08/02 06:50:42;;;;;;;6.2;3.4;;;;;;;19.61;75.16;;;;;
2023/08/02 07:01:42;;;;;;;6.2;3.4;;;;;;;19.8;73.1;;;;;
2023/08/02 07:11:42;;;;;;;5.5;2.6;;;;;;;19.88;74.17;;;;;
2023/08/02 07:21:42;;;;;;;5.5;2.6;;;;;;;20.39;72.09;;;;;
2023/08/02 07:32:42;;;;;;;5.5;2.6;;;;;;;20.98;70.98;;;;;
2023/08/02 07:42:42;;;;;;;5.9;3.1;;;;;;;21.48;68.14;;;;;
2023/08/02 07:53:42;;;;;;;5.9;3.1;;;;;;;22;67.11;;;;;
2023/08/02 08:03:42;;;;;;;5.9;3.1;;;;;;;21.94;66.26;;;;;
2023/08/02 08:13:42;;;;;;;4.4;2.3;;;;;;;22.37;63.25;;;;;
2023/08/02 08:24:42;;;;;;;4.4;2.3;;;;;;;22.46;62.48;;;;;
2023/08/02 08:35:42;;;;;;;4.4;2.3;;;;;;;22.25;62.32;;;;;
2023/08/02 08:45:42;;;;;;;6.6;2.1;;;;;;;22.54;62.13;;;;;
2023/08/02 08:55:42;;;;;;;6.6;2.1;;;;;;;22.78;61.85;;;;;
2023/08/02 09:05:42;;;;;;;6.6;2.1;;;;;;;22.87;61.7;;;;;
2023/08/02 09:15:42;;;;;;;3.1;1.5;;;;;;;23.12;57.38;;;;;
2023/08/02 09:25:42;;;;;;;3.1;1.5;;;;;;;23.28;57.56;;;;;
2023/08/02 09:36:42;;;;;;;3.4;1.6;;;;;;;23.2;57.76;;;;;
2023/08/02 09:46:43;;;;;;;3.4;1.6;;;;;;;23.82;55.5;;;;;
2023/08/02 09:57:42;;;;;;;3.4;1.6;;;;;;;24.34;56.1;;;;;
2023/08/02 10:08:42;;;;;;;4.1;2.1;;;;;;;24.71;55.26;;;;;
2023/08/02 10:19:42;;;;;;;4.1;2.1;;;;;;;24.84;52.36;;;;;
2023/08/02 10:29:42;;;;;;;4.1;2.1;;;;;;;25.28;52.47;;;;;
2023/08/02 10:39:42;;;;;;;3.3;1.4;;;;;;;25.83;53.47;;;;;
2023/08/02 10:49:42;;;;;;;3.3;1.4;;;;;;;25.6;55.66;;;;;
2023/08/02 11:00:42;;;;;;;3.3;1.4;;;;;;;25.49;50.27;;;;;
2023/08/02 11:10:42;;;;;;;3.2;1.8;;;;;;;25.27;51.1;;;;;
2023/08/02 11:21:42;;;;;;;3.2;1.8;;;;;;;25.83;52.13;;;;;
2023/08/02 11:31:42;;;;;;;3.2;1.8;;;;;;;25.97;50.02;;;;;
2023/08/02 11:42:42;;;;;;;3;1.6;;;;;;;26.28;49.6;;;;;
2023/08/02 11:52:42;;;;;;;3;1.6;;;;;;;25.94;49.89;;;;;
2023/08/02 12:03:42;;;;;;;3;1.6;;;;;;;25.61;51.75;;;;;
2023/08/02 12:13:42;;;;;;;3.7;1.7;;;;;;;25.66;49.07;;;;;
2023/08/02 12:23:42;;;;;;;3.7;1.7;;;;;;;26;49.7;;;;;
2023/08/02 12:34:42;;;;;;;3.7;1.7;;;;;;;26.4;49.92;;;;;
2023/08/02 12:44:42;;;;;;;3.2;1.4;;;;;;;26.46;48.83;;;;;
2023/08/02 12:55:42;;;;;;;3.2;1.4;;;;;;;27.31;41.11;;;;;
2023/08/02 13:05:42;;;;;;;3.2;1.4;;;;;;;27.01;40.44;;;;;
2023/08/02 13:15:42;;;;;;;2.1;1;;;;;;;27.34;46.96;;;;;
2023/08/02 13:26:42;;;;;;;2.1;1;;;;;;;27.04;40.36;;;;;
2023/08/02 13:37:42;;;;;;;3.4;1.2;;;;;;;27.4;41.53;;;;;
2023/08/02 13:48:42;;;;;;;3.4;1.2;;;;;;;26.98;41.88;;;;;
2023/08/02 13:59:42;;;;;;;3.4;1.2;;;;;;;27.29;41.87;;;;;
2023/08/02 14:09:42;;;;;;;2.8;0.9;;;;;;;27.09;38.01;;;;;
2023/08/02 14:20:42;;;;;;;2.8;0.9;;;;;;;27.34;42.54;;;;;
2023/08/02 14:30:42;;;;;;;2.8;0.9;;;;;;;27.33;36.64;;;;;
2023/08/02 14:40:42;;;;;;;3.4;1;;;;;;;27.58;38.9;;;;;
2023/08/02 14:51:42;;;;;;;3.4;1;;;;;;;27.46;39.12;;;;;
2023/08/02 15:02:42;;;;;;;3.4;1;;;;;;;27.93;37.78;;;;;
2023/08/02 15:12:42;;;;;;;2.7;1.1;;;;;;;28.06;37.47;;;;;
2023/08/02 15:22:42;;;;;;;2.7;1.1;;;;;;;28.05;35.91;;;;;
2023/08/02 15:33:42;;;;;;;2.7;1.1;;;;;;;30.06;34.51;;;;;
2023/08/02 15:44:42;;;;;;;4.2;1.1;;;;;;;32.04;33.26;;;;;
2023/08/02 15:55:42;;;;;;;4.2;1.1;;;;;;;32.82;32.91;;;;;
2023/08/02 16:05:42;;;;;;;4.2;1.1;;;;;;;32.62;33.94;;;;;
2023/08/02 16:16:42;;;;;;;3;1.4;;;;;;;29.91;36.9;;;;;
2023/08/02 16:26:42;;;;;;;3;1.4;;;;;;;28.9;38.2;;;;;
2023/08/02 16:36:42;;;;;;;3;1.4;;;;;;;27.48;41.33;;;;;
2023/08/02 16:46:42;;;;;;;3.1;1.2;;;;;;;27.19;42.7;;;;;
2023/08/02 16:56:42;;;;;;;3.1;1.2;;;;;;;26.44;43.33;;;;;
2023/08/02 17:07:43;;;;;;;5.5;1.5;;;;;;;25.86;44.38;;;;;
2023/08/02 17:18:42;;;;;;;5.5;1.5;;;;;;;25.2;44.34;;;;;
2023/08/02 17:29:42;;;;;;;5.5;1.5;;;;;;;24.23;48.1;;;;;
2023/08/02 17:39:43;;;;;;;4;1.9;;;;;;;23.42;49.86;;;;;
2023/08/02 17:49:42;;;;;;;4;1.9;;;;;;;22.83;51.6;;;;;
2023/08/02 17:59:42;;;;;;;4;1.9;;;;;;;22.17;55.37;;;;;
2023/08/02 18:09:42;;;;;;;6.2;2.4;;;;;;;21.49;57.45;;;;;
2023/08/02 18:20:42;;;;;;;6.2;2.4;;;;;;;21.02;58.88;;;;;
2023/08/02 18:30:44;;;;;;;6.2;2.4;;;;;;;20.75;58.54;;;;;
2023/08/02 18:40:42;;;;;;;7;3.7;;;;;;;20.58;59.98;;;;;
2023/08/02 18:51:42;;;;;;;7;3.7;;;;;;;20.25;62.06;;;;;
2023/08/02 19:02:42;;;;;;;7;3.7;;;;;;;20.23;61.66;;;;;
2023/08/02 19:13:42;;;;;;;7.3;2.6;;;;;;;20.12;61.9;;;;;
2023/08/02 19:24:43;;;;;;;7.3;2.6;;;;;;;20.1;61.67;;;;;
2023/08/02 19:34:42;;;;;;;7.3;2.6;;;;;;;20.04;61.69;;;;;
2023/08/02 19:44:42;;;;;;;4.1;1.7;;;;;;;19.86;61.21;;;;;
2023/08/02 19:54:42;;;;;;;4.1;1.7;;;;;;;19.63;62.68;;;;;
2023/08/02 20:04:42;;;;;;;4.1;1.7;;;;;;;19.54;62.92;;;;;
2023/08/02 20:15:42;;;;;;;3.5;1.7;;;;;;;19.35;63.46;;;;;
2023/08/02 20:26:42;;;;;;;3.5;1.7;;;;;;;19.2;64.94;;;;;
2023/08/02 20:36:42;;;;;;;3.5;1.7;;;;;;;19.18;64.74;;;;;
2023/08/02 20:46:42;;;;;;;4.5;2;;;;;;;19.25;64.9;;;;;
2023/08/02 20:57:42;;;;;;;4.5;2;;;;;;;19.31;64.75;;;;;
2023/08/02 21:08:42;;;;;;;6;3.9;;;;;;;19.11;65.55;;;;;
2023/08/02 21:18:43;;;;;;;6;3.9;;;;;;;19.1;66.67;;;;;
2023/08/02 21:29:42;;;;;;;6;3.9;;;;;;;19.17;67.03;;;;;
2023/08/02 21:40:42;;;;;;;4.8;1.9;;;;;;;19.31;66.77;;;;;
2023/08/02 21:50:43;;;;;;;4.8;1.9;;;;;;;19.38;67.07;;;;;
2023/08/02 22:00:42;;;;;;;4.8;1.9;;;;;;;19.38;66.96;;;;;
2023/08/02 22:10:42;;;;;;;3.5;1.5;;;;;;;19.25;67.66;;;;;
2023/08/02 22:21:42;;;;;;;3.5;1.5;;;;;;;18.92;68.92;;;;;
2023/08/02 22:32:42;;;;;;;3.5;1.5;;;;;;;18.67;69.67;;;;;
2023/08/02 22:42:43;;;;;;;4.6;1.7;;;;;;;18.56;69.98;;;;;
2023/08/02 22:52:43;;;;;;;4.6;1.7;;;;;;;18.38;71.12;;;;;
2023/08/02 23:03:43;;;;;;;4.6;1.7;;;;;;;18.27;71.97;;;;;
2023/08/02 23:14:42;;;;;;;3.7;1.7;;;;;;;18.33;72.64;;;;;
2023/08/02 23:24:42;;;;;;;3.7;1.7;;;;;;;18.35;72.42;;;;;
2023/08/02 23:34:42;;;;;;;3.7;1.7;;;;;;;18.32;72.59;;;;;
2023/08/02 23:44:43;;;;;;;4.6;1.9;;;;;;;18.24;72.19;;;;;
2023/08/02 23:55:42;;;;;;;4.6;1.9;;;;;;;18.11;75.03;;;;;
